Bloomfield, IN

11:33 PM EST on November 11, 2019 (GMT -0500)
Bloomfield | | Change Station
Active Advisory: Winter Weather Advisory

Elev 600 ft 39.05 °N, 86.95 °W | Updated 4 seconds ago

Overcast
Overcast
22 °F
Feels Like 22 °F
N
3
Wind Variable Wind from South
Gusts 7.0 mph

Today
High -- | Low -- °F
--% Chance of Precip.
Yesterday
High -- | Low -- °F
Precip. -- in
Pressure 30.29 in
Visibility 10.0 miles
Clouds Overcast 1500 ft
Windchill 22 °F
Dew Point 20 °F
Humidity 91%
Rainfall 0.11 in
Snow Depth Not available.
7:26 AM 5:37 PM
Full, 100% visible
SPECI KBMG 120418Z AUTO 33009G22KT 10SM OVC015 M05/M08 A3029 RMK AO2 T10501083
Pressure 30.29 in
Visibility 10.0 miles
Clouds Overcast 1500 ft
Windchill 22 °F
Dew Point 20 °F
Humidity 91%
Rainfall 0.11 in
Snow Depth Not available.
7:26 AM 5:37 PM
Full, 100% visible
SPECI KBMG 120418Z AUTO 33009G22KT 10SM OVC015 M05/M08 A3029 RMK AO2 T10501083

Get Your Daily Forecast Email!

Thanks for signing up!

Be on the lookout for a verification email in your inbox.

You'll start receiving severe weather alerts in your inbox..

×

10-Day Weather Forecast

Almanac

Astronomy

Nov. 11, 2019 Rise Set
Actual Time
Civil Twilight
Nautical Twilight
Astronomical Twilight
Moon
Length of Visible Light
Length of Day
Tomorrow will be .
, % of the Moon is Illuminated

Today's Extremes

State Highs State Lows

Community

WunderPhotos

Category 6

Welcome to Category 6. This is the collective home for Weather Underground's featured writeups by Dr. Jeff Masters (right), Bob Henson (left), Chris Burt, and other regular contributors.

Nearby

Air Quality

  Air Quality AQ Index Pollutant
Not available.

Snow Depth

Station Depth Elevation

Earthquake Activity

City Distance Mag. Time & Date
Minimum magnitude displayed is 2.5.

Coastal Water Temperatures

Place Temperature

Stations

Nearby Weather Stations

Station Location Temp. Windchill Dew Point Humidity Wind Precip. Elev Updated Type
                   

Watches & Warnings

Winter Weather Advisory
Issued: 10:12 PM EST Nov. 11, 2019 – National Weather Service

... Winter Weather Advisory remains in effect until 8 am EST
Tuesday...

* what... snow. Any additional snow accumulations should be less
than half an inch.

* Where... all of central Indiana.

* When... until 8 am EST Tuesday.

* Impacts... plan on slippery Road conditions. The hazardous
conditions could impact the morning commute.

* Additional details... while the majority of the accumulating snow
is over, residual moisture on roads could flash freeze overnight
with the plummeting temperatures.

Precautionary/preparedness actions...

Slow down and use caution while traveling.

The latest Road conditions for Indiana can be obtained by
calling 1 800 2 6 1 7 6 2 3



For more information from the National Weather Service visit
http://weather.Gov/ind